Time;durP1;ratioP1;P1;durP2;ratioP2;P2;SDS_P1;SDS_P2;PMS_P1;PMS_P2;Temp;Humidity;BMP_temperature;BMP_pressure;BME280_temperature;BME280_humidity;BME280_pressure;Samples;Min_cycle;Max_cycle;Signal;HPM_P1;HPM_P2
2022/08/03 00:00:46;;;;;;;1.98;0.90;;;26.90;53.40;;;;;;4909240;29;20063;-78
2022/08/03 00:03:11;;;;;;;2.35;1.33;;;26.80;53.40;;;;;;4957766;29;20035;-79
2022/08/03 00:05:38;;;;;;;1.45;0.98;;;26.80;53.50;;;;;;4940626;29;20030;-83
2022/08/03 00:08:04;;;;;;;2.20;1.20;;;26.80;53.50;;;;;;4940665;29;20042;-77
2022/08/03 00:10:30;;;;;;;1.63;1.20;;;26.80;53.60;;;;;;4924585;29;20039;-79
2022/08/03 00:12:55;;;;;;;3.22;1.20;;;26.70;53.50;;;;;;4940657;29;20051;-85
2022/08/03 00:15:21;;;;;;;3.03;1.23;;;26.70;53.60;;;;;;4941043;29;20539;-84
2022/08/03 00:17:47;;;;;;;3.03;1.20;;;26.70;53.70;;;;;;4957842;29;20066;-78
2022/08/03 00:20:13;;;;;;;1.88;0.90;;;26.60;53.60;;;;;;4925190;29;20063;-82
2022/08/03 00:22:38;;;;;;;1.23;0.90;;;26.60;53.60;;;;;;4940588;29;20097;-77
2022/08/03 00:25:05;;;;;;;1.55;1.10;;;26.60;53.70;;;;;;4958010;29;20035;-78
2022/08/03 00:27:31;;;;;;;2.60;1.10;;;26.50;53.70;;;;;;4940506;29;20047;-77
2022/08/03 00:29:56;;;;;;;1.60;1.20;;;26.50;53.70;;;;;;4957063;29;20031;-79
2022/08/03 00:32:22;;;;;;;3.10;1.10;;;26.50;53.80;;;;;;4940173;29;20423;-82
2022/08/03 00:34:48;;;;;;;2.00;0.95;;;26.50;53.80;;;;;;4940369;29;20090;-79
2022/08/03 00:37:14;;;;;;;1.88;1.10;;;26.40;53.80;;;;;;4924986;29;20031;-80
2022/08/03 00:39:42;;;;;;;0.90;0.90;;;26.40;53.80;;;;;;4956955;29;20036;-77
2022/08/03 00:42:08;;;;;;;2.53;1.02;;;26.40;53.90;;;;;;4957049;29;20122;-77
2022/08/03 00:44:41;;;;;;;1.40;0.90;;;26.40;53.90;;;;;;4957447;29;20058;-81
2022/08/03 00:47:09;;;;;;;1.92;1.08;;;26.30;54.00;;;;;;4956799;29;20047;-80
2022/08/03 00:49:35;;;;;;;1.20;0.80;;;26.30;54.00;;;;;;4957247;29;20027;-86
2022/08/03 00:52:01;;;;;;;1.90;1.02;;;26.30;54.10;;;;;;4939810;29;20058;-80
2022/08/03 00:54:27;;;;;;;1.92;1.15;;;26.20;54.00;;;;;;4939705;29;20507;-79
2022/08/03 00:56:53;;;;;;;1.88;1.10;;;26.20;54.10;;;;;;4957260;29;20067;-78
2022/08/03 00:59:20;;;;;;;3.13;1.13;;;26.20;54.10;;;;;;4923401;29;20035;-79
2022/08/03 01:01:45;;;;;;;1.10;0.93;;;26.10;54.10;;;;;;4923323;29;20051;-78
2022/08/03 01:04:11;;;;;;;1.80;1.15;;;26.10;54.20;;;;;;4939370;29;20030;-77
2022/08/03 01:06:45;;;;;;;1.38;0.95;;;26.10;54.20;;;;;;4956218;29;20098;-78
2022/08/03 01:09:25;;;;;;;1.70;1.00;;;26.00;54.20;;;;;;4956408;29;20034;-77
2022/08/03 01:12:04;;;;;;;1.27;1.08;;;26.00;54.30;;;;;;4956043;28;20051;-80
2022/08/03 01:14:40;;;;;;;3.85;1.40;;;26.00;54.40;;;;;;4939416;29;20031;-83
2022/08/03 01:17:26;;;;;;;2.83;1.10;;;26.00;54.50;;;;;;4939095;29;20065;-81
2022/08/03 01:20:01;;;;;;;1.00;0.90;;;25.90;54.40;;;;;;4955890;29;20117;-78
2022/08/03 01:23:03;;;;;;;1.02;0.80;;;25.90;54.40;;;;;;4955878;29;20042;-82
2022/08/03 01:25:57;;;;;;;3.47;1.00;;;25.80;54.50;;;;;;4956510;29;20027;-77
2022/08/03 01:28:55;;;;;;;2.53;0.85;;;25.80;54.50;;;;;;4956097;29;20027;-77
2022/08/03 01:31:28;;;;;;;1.48;1.00;;;25.80;54.50;;;;;;4938932;29;20476;-78
2022/08/03 01:34:01;;;;;;;2.30;1.00;;;25.70;54.50;;;;;;4939784;29;20031;-77
2022/08/03 01:36:35;;;;;;;2.03;1.13;;;25.70;54.60;;;;;;4923358;29;20059;-78
2022/08/03 01:39:03;;;;;;;0.88;0.80;;;25.70;54.60;;;;;;4939155;29;20376;-77
2022/08/03 01:41:37;;;;;;;2.17;1.20;;;25.60;54.60;;;;;;4956175;29;20035;-79
2022/08/03 01:44:06;;;;;;;1.05;0.77;;;25.60;54.60;;;;;;4923770;29;20039;-78
2022/08/03 01:46:33;;;;;;;2.08;0.80;;;25.60;54.60;;;;;;4938666;29;20055;-80
2022/08/03 01:49:01;;;;;;;1.90;1.02;;;25.60;54.70;;;;;;4956117;29;20067;-77
2022/08/03 01:51:27;;;;;;;2.58;1.00;;;25.60;54.70;;;;;;4938911;29;20066;-78
2022/08/03 01:53:54;;;;;;;1.33;0.88;;;25.50;54.70;;;;;;4956076;29;20050;-77
2022/08/03 01:56:23;;;;;;;1.02;0.82;;;25.50;54.80;;;;;;4923187;29;20035;-77
2022/08/03 01:58:51;;;;;;;2.05;0.80;;;25.40;54.80;;;;;;4955811;29;20028;-78
2022/08/03 02:01:19;;;;;;;1.83;0.80;;;25.40;54.80;;;;;;4938513;29;20183;-80
2022/08/03 02:03:47;;;;;;;1.33;0.77;;;25.40;54.80;;;;;;4939075;29;20027;-78
2022/08/03 02:06:14;;;;;;;2.63;0.90;;;25.40;54.90;;;;;;4922917;29;20027;-85
2022/08/03 02:08:42;;;;;;;2.95;1.20;;;25.30;54.90;;;;;;4922811;29;20387;-80
2022/08/03 02:11:08;;;;;;;1.02;0.73;;;25.30;54.90;;;;;;4954594;28;20031;-80
2022/08/03 02:13:34;;;;;;;1.92;1.00;;;25.30;54.90;;;;;;4938084;29;20051;-77
2022/08/03 02:16:04;;;;;;;1.63;1.00;;;25.30;55.00;;;;;;4922840;29;20039;-78
2022/08/03 02:18:32;;;;;;;2.20;1.05;;;25.20;55.00;;;;;;4955637;29;20026;-78
2022/08/03 02:21:03;;;;;;;1.88;0.93;;;25.20;55.00;;;;;;4938247;29;20073;-77
2022/08/03 02:23:29;;;;;;;2.67;0.90;;;25.20;55.10;;;;;;4955666;29;20043;-78
2022/08/03 02:26:03;;;;;;;1.63;1.08;;;25.20;55.10;;;;;;4955368;29;20031;-78
2022/08/03 02:28:34;;;;;;;2.03;1.02;;;25.10;55.10;;;;;;4955233;29;20058;-78
2022/08/03 02:31:03;;;;;;;1.70;1.00;;;25.10;55.10;;;;;;4923341;29;20031;-77
2022/08/03 02:33:32;;;;;;;2.05;1.00;;;25.10;55.10;;;;;;4939010;29;20079;-82
2022/08/03 02:35:59;;;;;;;1.33;0.95;;;25.10;55.20;;;;;;4938204;29;20055;-78
2022/08/03 02:38:34;;;;;;;2.00;1.10;;;25.00;55.20;;;;;;4938302;29;20361;-78
2022/08/03 02:41:06;;;;;;;2.15;0.98;;;25.00;56.00;;;;;;4955526;29;20086;-77
2022/08/03 02:43:34;;;;;;;1.27;1.00;;;25.00;55.30;;;;;;4938558;29;20035;-77
2022/08/03 02:46:00;;;;;;;1.98;1.02;;;24.90;55.30;;;;;;4955521;29;20027;-77
2022/08/03 02:48:29;;;;;;;1.10;1.00;;;24.90;55.30;;;;;;4955401;29;20027;-77
2022/08/03 02:50:57;;;;;;;2.17;1.13;;;24.90;55.40;;;;;;4955473;29;20055;-76
2022/08/03 02:53:23;;;;;;;1.63;1.00;;;24.90;55.50;;;;;;4937804;29;20460;-84
2022/08/03 02:55:51;;;;;;;1.38;0.90;;;24.80;55.40;;;;;;4937842;29;20102;-78
2022/08/03 02:58:22;;;;;;;2.38;1.00;;;24.80;55.50;;;;;;4937824;29;20118;-77
2022/08/03 03:00:52;;;;;;;1.75;0.82;;;24.80;55.50;;;;;;4955489;29;20038;-79
2022/08/03 03:03:20;;;;;;;1.38;1.02;;;24.80;55.60;;;;;;4938491;29;20039;-84
2022/08/03 03:05:47;;;;;;;1.75;0.90;;;24.70;55.60;;;;;;4937797;29;20034;-79
2022/08/03 03:08:16;;;;;;;1.25;0.90;;;24.70;55.60;;;;;;4954833;29;20043;-77
2022/08/03 03:10:43;;;;;;;3.30;1.20;;;24.70;55.70;;;;;;4938041;29;20035;-82
2022/08/03 03:13:09;;;;;;;2.63;0.98;;;24.70;55.70;;;;;;4937528;29;20059;-80
2022/08/03 03:15:38;;;;;;;2.83;1.05;;;24.60;55.70;;;;;;4922150;29;20073;-78
2022/08/03 03:18:05;;;;;;;1.48;1.00;;;24.60;55.70;;;;;;4955780;29;20023;-77
2022/08/03 03:20:34;;;;;;;1.35;0.85;;;24.60;55.80;;;;;;4922062;29;20114;-77
2022/08/03 03:23:01;;;;;;;2.67;1.23;;;24.60;55.80;;;;;;4940553;29;20027;-77
2022/08/03 03:25:32;;;;;;;1.70;1.10;;;24.60;55.90;;;;;;4925728;29;20043;-77
2022/08/03 03:27:59;;;;;;;3.05;1.20;;;24.50;55.90;;;;;;4958699;29;20031;-77
2022/08/03 03:30:25;;;;;;;2.10;1.10;;;24.50;55.90;;;;;;4925450;29;20488;-82
2022/08/03 03:32:52;;;;;;;1.05;0.80;;;24.50;55.90;;;;;;4941047;29;20392;-77
2022/08/03 03:35:17;;;;;;;2.50;1.38;;;24.40;55.90;;;;;;4958501;29;20039;-79
2022/08/03 03:37:43;;;;;;;1.20;0.90;;;24.40;56.00;;;;;;4925648;29;20356;-77
2022/08/03 03:40:09;;;;;;;2.45;1.00;;;24.40;56.00;;;;;;4940643;29;20376;-78
2022/08/03 03:42:37;;;;;;;1.95;1.00;;;24.40;56.00;;;;;;4940781;29;20046;-81
2022/08/03 03:45:06;;;;;;;2.25;1.10;;;24.40;56.10;;;;;;4958424;29;20046;-81
2022/08/03 03:47:35;;;;;;;1.73;1.20;;;24.30;56.10;;;;;;4958055;29;20035;-79
2022/08/03 03:50:04;;;;;;;1.83;1.00;;;24.30;56.20;;;;;;4940985;29;20090;-77
2022/08/03 03:52:31;;;;;;;1.73;1.00;;;24.30;56.20;;;;;;4940459;29;20058;-77
2022/08/03 03:54:57;;;;;;;2.42;1.17;;;24.20;56.20;;;;;;4957741;29;20027;-78
2022/08/03 03:57:23;;;;;;;2.67;1.33;;;24.20;56.20;;;;;;4940602;29;20043;-78
2022/08/03 03:59:48;;;;;;;1.20;1.05;;;24.20;56.30;;;;;;4925017;29;20102;-79
2022/08/03 04:02:14;;;;;;;2.15;1.08;;;24.10;56.30;;;;;;4924765;29;20091;-79
2022/08/03 04:13:02;;;;;;;1.85;1.00;;;24.10;56.50;;;;;;4940421;29;20047;-80
2022/08/03 04:15:32;;;;;;;1.58;1.05;;;24.00;56.40;;;;;;4940686;29;20035;-77
2022/08/03 04:17:58;;;;;;;1.70;1.10;;;24.00;56.50;;;;;;4957679;29;20034;-80
2022/08/03 04:20:29;;;;;;;2.42;1.40;;;24.00;56.50;;;;;;4940725;29;20032;-77
2022/08/03 04:22:58;;;;;;;2.65;1.30;;;24.00;56.60;;;;;;4941134;29;20059;-77
2022/08/03 04:25:27;;;;;;;1.65;1.00;;;24.00;56.60;;;;;;4940529;29;20476;-77
2022/08/03 04:27:57;;;;;;;2.38;1.20;;;23.90;56.60;;;;;;4939740;29;20023;-77
2022/08/03 04:30:26;;;;;;;1.65;1.10;;;23.90;56.60;;;;;;4956787;29;20035;-77
2022/08/03 04:32:55;;;;;;;1.25;1.10;;;23.90;56.70;;;;;;4939004;29;20027;-78
2022/08/03 04:35:23;;;;;;;1.38;1.10;;;23.90;56.80;;;;;;4957055;29;20031;-78
2022/08/03 04:37:52;;;;;;;1.23;0.80;;;23.80;56.70;;;;;;4924097;29;20031;-77
2022/08/03 04:40:26;;;;;;;1.65;1.00;;;23.80;56.80;;;;;;4940060;29;20035;-81
2022/08/03 04:42:55;;;;;;;2.55;1.38;;;23.80;56.90;;;;;;4940174;29;20066;-81
2022/08/03 04:45:21;;;;;;;1.60;1.10;;;23.80;56.80;;;;;;4940699;29;20127;-80
2022/08/03 04:47:49;;;;;;;1.67;1.10;;;23.80;56.80;;;;;;4940262;29;20031;-81
2022/08/03 04:50:15;;;;;;;1.83;1.30;;;23.80;56.90;;;;;;4957275;29;20031;-81
2022/08/03 04:52:43;;;;;;;2.30;1.20;;;23.80;56.90;;;;;;4939974;29;20031;-80
2022/08/03 04:55:09;;;;;;;1.92;1.33;;;23.70;56.90;;;;;;4939955;29;20043;-80
2022/08/03 04:57:34;;;;;;;2.40;1.27;;;23.70;57.00;;;;;;4939701;29;20035;-81
2022/08/03 05:00:00;;;;;;;2.53;1.25;;;23.70;57.00;;;;;;4957091;29;20039;-82
2022/08/03 05:02:26;;;;;;;3.05;1.38;;;23.70;57.00;;;;;;4939376;29;20058;-81
2022/08/03 05:04:52;;;;;;;3.17;1.30;;;23.70;57.00;;;;;;4956880;29;20082;-81
2022/08/03 05:07:18;;;;;;;1.15;1.05;;;23.60;57.00;;;;;;4924479;29;20468;-81
2022/08/03 05:09:44;;;;;;;2.40;1.40;;;23.60;57.00;;;;;;4923553;29;20133;-81
2022/08/03 05:12:10;;;;;;;2.90;1.30;;;23.60;57.10;;;;;;4956531;28;20058;-81
2022/08/03 05:14:37;;;;;;;1.98;1.20;;;23.60;57.10;;;;;;4939578;29;20040;-81
2022/08/03 05:17:06;;;;;;;1.75;1.20;;;23.60;57.10;;;;;;4939510;29;20043;-82
2022/08/03 05:19:32;;;;;;;1.80;1.50;;;23.60;57.10;;;;;;4940089;29;20086;-82
2022/08/03 05:21:58;;;;;;;2.13;1.35;;;23.60;57.10;;;;;;4939745;29;20043;-80
2022/08/03 05:24:24;;;;;;;1.95;1.20;;;23.60;57.10;;;;;;4956645;29;20032;-80
2022/08/03 05:26:50;;;;;;;1.60;1.20;;;23.60;57.20;;;;;;4939616;29;20377;-81
2022/08/03 05:29:15;;;;;;;2.25;1.27;;;23.60;57.20;;;;;;4955982;29;20075;-81
2022/08/03 05:31:41;;;;;;;3.60;1.40;;;23.50;57.10;;;;;;4938953;29;20047;-81
2022/08/03 05:34:07;;;;;;;1.85;1.30;;;23.50;57.10;;;;;;4939278;29;20042;-81
2022/08/03 05:36:33;;;;;;;1.63;1.20;;;23.50;57.10;;;;;;4923207;29;20034;-80
2022/08/03 05:38:58;;;;;;;1.40;1.30;;;23.50;57.10;;;;;;4956875;29;20078;-80
2022/08/03 05:41:24;;;;;;;1.17;1.05;;;23.50;57.20;;;;;;4923238;29;20036;-82
2022/08/03 05:43:51;;;;;;;1.27;1.10;;;23.50;57.20;;;;;;4923288;29;20075;-81
2022/08/03 05:46:17;;;;;;;1.50;1.17;;;23.50;57.20;;;;;;4956130;28;20039;-80
2022/08/03 05:48:42;;;;;;;1.27;1.05;;;23.50;57.30;;;;;;4939339;29;20042;-82
2022/08/03 05:51:09;;;;;;;1.45;1.10;;;23.40;57.10;;;;;;4939508;29;20480;-84
2022/08/03 05:53:36;;;;;;;3.80;1.45;;;23.50;57.20;;;;;;4923250;29;20035;-83
2022/08/03 05:56:02;;;;;;;1.77;1.27;;;23.40;57.20;;;;;;4922636;29;20082;-82
2022/08/03 05:58:28;;;;;;;1.17;1.08;;;23.40;57.20;;;;;;4938628;29;20050;-83
2022/08/03 06:00:54;;;;;;;1.70;1.20;;;23.50;57.20;;;;;;4956431;29;20472;-82
2022/08/03 06:03:19;;;;;;;2.80;1.20;;;23.40;57.20;;;;;;4956823;29;20035;-82
2022/08/03 06:05:45;;;;;;;1.40;1.20;;;23.50;57.30;;;;;;4923680;29;20433;-81
2022/08/03 06:08:11;;;;;;;3.38;1.38;;;23.40;57.20;;;;;;4956633;29;20456;-82
2022/08/03 06:10:37;;;;;;;1.67;1.20;;;23.40;57.20;;;;;;4955435;29;20090;-83
2022/08/03 06:13:03;;;;;;;1.45;1.15;;;23.50;57.30;;;;;;4955857;29;20093;-83
2022/08/03 06:15:29;;;;;;;1.65;1.30;;;23.40;57.20;;;;;;4922997;29;20035;-82
2022/08/03 06:17:56;;;;;;;1.95;1.20;;;23.40;57.20;;;;;;4955633;29;20035;-80
2022/08/03 06:20:22;;;;;;;1.38;1.15;;;23.40;57.20;;;;;;4938310;29;20067;-83
2022/08/03 06:22:48;;;;;;;1.67;1.05;;;23.40;57.20;;;;;;4939419;29;20482;-82
2022/08/03 06:25:13;;;;;;;2.88;1.23;;;23.40;57.20;;;;;;4955970;29;20046;-82
2022/08/03 06:27:39;;;;;;;2.00;1.20;;;23.40;57.20;;;;;;4922658;29;20468;-82
2022/08/03 06:30:07;;;;;;;1.35;1.20;;;23.40;57.30;;;;;;4938579;29;20469;-82
2022/08/03 06:32:33;;;;;;;1.58;1.20;;;23.40;57.20;;;;;;4923039;29;20035;-82
2022/08/03 06:34:59;;;;;;;1.52;1.08;;;23.50;57.30;;;;;;4922751;29;20019;-83
2022/08/03 06:37:26;;;;;;;2.38;1.23;;;23.50;57.30;;;;;;4955681;29;20387;-82
2022/08/03 06:39:52;;;;;;;1.10;1.00;;;23.40;57.20;;;;;;4939488;29;20596;-84
2022/08/03 06:42:18;;;;;;;2.55;1.40;;;23.50;57.30;;;;;;4943387;29;20043;-82
2022/08/03 06:44:44;;;;;;;2.55;1.20;;;23.50;57.30;;;;;;4932460;29;20033;-82
2022/08/03 06:47:13;;;;;;;1.23;1.10;;;23.50;57.30;;;;;;4924370;29;20436;-85
2022/08/03 06:49:39;;;;;;;1.08;1.00;;;23.50;57.30;;;;;;4923412;29;20039;-80
2022/08/03 06:52:05;;;;;;;1.70;1.30;;;23.50;57.40;;;;;;4938645;29;20112;-81
2022/08/03 06:54:31;;;;;;;1.52;1.10;;;23.50;57.30;;;;;;4937904;29;20540;-78
2022/08/03 06:56:57;;;;;;;2.00;1.10;;;23.50;57.30;;;;;;4939284;29;20093;-81
2022/08/03 06:59:22;;;;;;;1.80;1.00;;;23.50;57.30;;;;;;4926662;29;20027;-79
2022/08/03 07:01:48;;;;;;;1.98;1.40;;;23.50;57.40;;;;;;4941401;29;20510;-82
2022/08/03 07:04:14;;;;;;;1.90;1.25;;;23.50;57.40;;;;;;4925689;29;20035;-81
2022/08/03 07:06:39;;;;;;;1.40;1.15;;;23.50;57.40;;;;;;4925691;29;20034;-79
2022/08/03 07:09:05;;;;;;;0.93;0.80;;;23.50;57.40;;;;;;4958570;29;20468;-81
2022/08/03 07:11:31;;;;;;;2.25;1.10;;;23.60;57.40;;;;;;4925800;29;20121;-81
2022/08/03 07:13:57;;;;;;;2.17;1.30;;;23.60;57.50;;;;;;4941016;29;20399;-79
2022/08/03 07:16:22;;;;;;;2.22;1.13;;;23.60;57.50;;;;;;4941082;29;20476;-80
2022/08/03 07:18:48;;;;;;;2.10;1.08;;;23.60;57.50;;;;;;4941473;29;20054;-84
2022/08/03 07:21:15;;;;;;;2.85;1.48;;;23.60;57.50;;;;;;4925167;29;20051;-79
2022/08/03 07:23:41;;;;;;;2.60;1.17;;;23.60;57.50;;;;;;4958830;29;20038;-79
2022/08/03 07:26:07;;;;;;;1.65;1.23;;;23.60;57.50;;;;;;4958685;29;20378;-82
2022/08/03 07:28:32;;;;;;;1.98;1.10;;;23.60;57.50;;;;;;4941995;29;20039;-80
2022/08/03 07:30:58;;;;;;;2.15;1.27;;;23.70;57.50;;;;;;4958679;29;20046;-81
2022/08/03 07:33:24;;;;;;;1.45;1.13;;;23.70;57.50;;;;;;4940917;29;20034;-80
2022/08/03 07:35:50;;;;;;;3.00;1.20;;;23.70;57.60;;;;;;4941119;29;20035;-79
2022/08/03 07:38:16;;;;;;;1.25;0.93;;;23.70;57.60;;;;;;4925499;29;20487;-80
2022/08/03 07:40:42;;;;;;;3.40;1.30;;;23.70;57.60;;;;;;4940977;29;20043;-79
2022/08/03 07:43:08;;;;;;;2.95;1.20;;;23.80;57.70;;;;;;4940757;29;20047;-80
2022/08/03 07:45:33;;;;;;;2.08;1.13;;;23.80;57.70;;;;;;4924920;29;20476;-79
2022/08/03 07:48:00;;;;;;;1.67;1.15;;;23.80;57.80;;;;;;4925820;29;20059;-79
2022/08/03 07:50:25;;;;;;;4.28;1.42;;;23.80;57.80;;;;;;4940782;29;20035;-79
2022/08/03 07:52:52;;;;;;;2.20;1.40;;;23.80;57.80;;;;;;4957748;29;20034;-80
2022/08/03 07:55:21;;;;;;;2.25;1.13;;;23.90;57.90;;;;;;4925349;29;20083;-79
2022/08/03 07:58:02;;;;;;;2.65;1.30;;;23.90;57.90;;;;;;4958748;29;20059;-81
2022/08/03 08:00:28;;;;;;;2.80;1.20;;;24.00;58.10;;;;;;4925122;29;20042;-81
2022/08/03 08:02:54;;;;;;;2.90;1.10;;;24.00;57.90;;;;;;4925153;29;20487;-79
2022/08/03 08:05:20;;;;;;;2.58;1.27;;;24.00;57.90;;;;;;4940417;29;20035;-82
2022/08/03 08:07:46;;;;;;;2.92;1.50;;;24.00;57.90;;;;;;4925045;29;20043;-80
2022/08/03 08:10:11;;;;;;;3.25;1.48;;;24.00;57.80;;;;;;4940425;29;20460;-80
2022/08/03 08:12:39;;;;;;;2.47;1.15;;;24.10;57.90;;;;;;4940192;29;20054;-81
2022/08/03 08:15:05;;;;;;;1.67;1.10;;;24.20;57.80;;;;;;4940262;29;20031;-82
2022/08/03 08:17:44;;;;;;;3.28;1.50;;;24.20;57.70;;;;;;4924414;29;20543;-78
2022/08/03 08:20:11;;;;;;;3.05;1.30;;;24.30;57.70;;;;;;4940006;29;20038;-82
2022/08/03 08:22:37;;;;;;;1.63;0.93;;;24.40;57.60;;;;;;4940009;29;20036;-81
2022/08/03 08:25:03;;;;;;;2.67;1.23;;;24.40;57.50;;;;;;4924562;29;20472;-79
2022/08/03 08:27:28;;;;;;;0.95;0.85;;;24.50;57.40;;;;;;4940461;29;20027;-80
2022/08/03 08:29:54;;;;;;;2.58;1.15;;;24.50;57.30;;;;;;4940297;29;20035;-78
2022/08/03 08:32:20;;;;;;;1.30;1.20;;;24.60;57.20;;;;;;4940092;29;20467;-81
2022/08/03 08:34:45;;;;;;;1.33;1.10;;;24.70;57.20;;;;;;4924176;29;20468;-79
2022/08/03 08:37:11;;;;;;;2.33;1.40;;;24.70;57.10;;;;;;4940620;29;20029;-78
2022/08/03 08:39:37;;;;;;;2.28;1.10;;;24.80;57.00;;;;;;4939932;29;20463;-82
2022/08/03 08:42:03;;;;;;;2.38;1.10;;;24.80;56.90;;;;;;4939630;29;20035;-79
2022/08/03 08:44:29;;;;;;;2.65;1.15;;;24.90;56.90;;;;;;4939815;29;20034;-79
2022/08/03 08:47:00;;;;;;;2.35;1.02;;;25.00;56.90;;;;;;4923774;29;20571;-80
2022/08/03 08:49:28;;;;;;;3.10;1.40;;;25.00;56.80;;;;;;4957494;29;20039;-79
2022/08/03 08:51:55;;;;;;;4.72;1.13;;;25.10;56.80;;;;;;4957375;29;20046;-80
2022/08/03 08:54:22;;;;;;;2.38;1.00;;;25.20;56.80;;;;;;4940403;29;20031;-79
2022/08/03 08:56:51;;;;;;;2.00;1.10;;;25.30;56.80;;;;;;4957278;29;20091;-80
2022/08/03 08:59:17;;;;;;;1.58;1.00;;;25.40;56.80;;;;;;4956635;29;20132;-81
2022/08/03 09:01:43;;;;;;;2.22;1.10;;;25.40;56.60;;;;;;4939886;29;20063;-81
2022/08/03 09:04:09;;;;;;;1.85;0.98;;;25.50;56.60;;;;;;4941796;29;20039;-79
2022/08/03 09:06:35;;;;;;;2.05;1.10;;;25.60;56.60;;;;;;4927212;29;20039;-79
2022/08/03 09:09:00;;;;;;;2.60;1.30;;;25.70;56.60;;;;;;4926938;29;20071;-79
2022/08/03 09:11:26;;;;;;;2.38;1.17;;;25.80;56.70;;;;;;4923839;29;20055;-80
2022/08/03 09:13:52;;;;;;;3.15;1.10;;;25.80;56.60;;;;;;4939560;29;20051;-80
2022/08/03 09:16:21;;;;;;;3.60;1.30;;;25.90;56.70;;;;;;4924257;29;20032;-81
2022/08/03 09:18:50;;;;;;;3.97;1.20;;;26.00;56.70;;;;;;4923359;28;20032;-80
2022/08/03 09:21:30;;;;;;;3.08;1.00;;;26.10;56.70;;;;;;4938987;29;20035;-79
2022/08/03 09:23:57;;;;;;;2.00;0.80;;;26.20;56.70;;;;;;4939429;29;20030;-80
2022/08/03 09:26:25;;;;;;;2.30;1.20;;;26.30;56.60;;;;;;4923284;29;20027;-79
2022/08/03 09:29:21;;;;;;;2.33;1.17;;;26.40;56.60;;;;;;4956763;29;20039;-81
2022/08/03 09:31:47;;;;;;;2.88;1.50;;;26.50;56.70;;;;;;4923550;29;20101;-79
2022/08/03 09:34:16;;;;;;;3.40;1.08;;;26.60;56.60;;;;;;4923424;29;20502;-80
2022/08/03 09:36:47;;;;;;;2.97;1.35;;;26.70;56.60;;;;;;4955894;29;20038;-80
2022/08/03 09:39:30;;;;;;;2.67;1.17;;;26.80;56.60;;;;;;4956800;29;20058;-79
2022/08/03 09:42:17;;;;;;;1.73;0.98;;;26.90;56.60;;;;;;4923085;29;20027;-82
2022/08/03 09:44:45;;;;;;;2.05;1.00;;;27.00;56.70;;;;;;4939179;29;20038;-80
2022/08/03 09:47:13;;;;;;;2.50;1.13;;;27.10;56.60;;;;;;4938905;29;20042;-79
2022/08/03 09:49:41;;;;;;;3.70;1.35;;;27.20;56.70;;;;;;4938894;29;20070;-79
2022/08/03 09:52:21;;;;;;;2.67;1.20;;;27.30;56.70;;;;;;4955677;29;20039;-79
2022/08/03 09:54:52;;;;;;;1.98;1.30;;;27.40;56.70;;;;;;4956537;29;20034;-81
2022/08/03 09:57:23;;;;;;;2.78;1.20;;;27.50;56.70;;;;;;4938999;29;20031;-80
2022/08/03 09:59:50;;;;;;;2.83;1.17;;;27.60;56.70;;;;;;4922720;29;20035;-81
2022/08/03 10:02:22;;;;;;;2.85;1.27;;;27.70;56.70;;;;;;4939420;29;20042;-82
2022/08/03 10:04:49;;;;;;;1.85;1.20;;;27.80;56.80;;;;;;4955776;29;20027;-79
2022/08/03 10:07:15;;;;;;;2.05;0.90;;;27.80;56.60;;;;;;4955748;29;20035;-84
2022/08/03 10:09:56;;;;;;;2.92;1.02;;;27.90;56.60;;;;;;4938901;29;20531;-80
2022/08/03 10:12:24;;;;;;;1.77;0.95;;;28.00;56.70;;;;;;4955130;29;20043;-83
2022/08/03 10:14:51;;;;;;;2.65;1.13;;;28.10;56.60;;;;;;4955680;29;20039;-80
2022/08/03 10:17:17;;;;;;;2.45;1.20;;;28.20;56.70;;;;;;4938126;29;20110;-80
2022/08/03 10:19:43;;;;;;;2.72;1.20;;;28.30;56.70;;;;;;4923579;29;20039;-79
2022/08/03 10:22:20;;;;;;;2.55;1.15;;;28.40;56.70;;;;;;4923414;29;20047;-81
2022/08/03 10:24:59;;;;;;;4.40;1.20;;;28.50;56.70;;;;;;4938824;29;20119;-80
2022/08/03 10:27:30;;;;;;;2.97;1.17;;;28.60;56.80;;;;;;4938161;29;20024;-79
2022/08/03 10:30:01;;;;;;;4.00;1.20;;;28.70;56.70;;;;;;4922780;29;20079;-79
2022/08/03 10:32:32;;;;;;;2.22;1.00;;;28.80;56.80;;;;;;4940910;29;20443;-79
2022/08/03 10:35:09;;;;;;;1.65;1.05;;;28.80;56.60;;;;;;4959376;29;20031;-80
2022/08/03 10:37:47;;;;;;;3.80;1.08;;;29.00;56.70;;;;;;4942187;29;20069;-80
2022/08/03 10:40:18;;;;;;;2.42;1.25;;;29.10;56.60;;;;;;4942878;29;20031;-80
2022/08/03 10:42:45;;;;;;;2.95;1.00;;;29.10;56.50;;;;;;4959699;29;20114;-79
2022/08/03 10:45:22;;;;;;;2.15;0.95;;;29.30;56.60;;;;;;4959372;29;20023;-79
2022/08/03 10:47:50;;;;;;;2.60;1.13;;;29.40;56.60;;;;;;4942225;29;20038;-80
2022/08/03 10:50:17;;;;;;;2.15;0.93;;;29.40;56.40;;;;;;4958876;29;20031;-80
2022/08/03 10:53:02;;;;;;;2.78;1.20;;;29.50;56.40;;;;;;4941932;29;20039;-80
2022/08/03 10:58:37;;;;;;;1.33;0.73;;;29.70;56.30;;;;;;4942438;29;20134;-80
2022/08/03 11:01:04;;;;;;;1.88;1.15;;;29.80;56.50;;;;;;4941632;29;20039;-80
2022/08/03 11:03:30;;;;;;;2.97;1.02;;;29.90;56.30;;;;;;4925593;29;20035;-83
2022/08/03 11:06:17;;;;;;;2.60;0.90;;;29.90;56.20;;;;;;4942394;29;20042;-81
2022/08/03 11:08:47;;;;;;;2.65;0.90;;;30.00;57.10;;;;;;4958854;29;20031;-80
2022/08/03 11:11:18;;;;;;;2.72;1.25;;;30.10;56.30;;;;;;4959151;29;20043;-80
2022/08/03 11:14:04;;;;;;;2.45;1.20;;;30.20;56.40;;;;;;4941564;29;20058;-80
2022/08/03 11:16:36;;;;;;;3.40;1.10;;;30.30;56.50;;;;;;4942089;29;20050;-80
2022/08/03 11:19:09;;;;;;;2.63;0.98;;;30.30;56.40;;;;;;4941547;29;20045;-86
2022/08/03 11:21:50;;;;;;;1.80;1.02;;;30.40;56.50;;;;;;4941770;29;20046;-80
2022/08/03 11:24:50;;;;;;;1.55;0.98;;;30.40;56.60;;;;;;4941299;29;20055;-86
2022/08/03 11:28:08;;;;;;;1.77;0.95;;;30.50;57.00;;;;;;4926261;29;20031;-84
2022/08/03 11:30:33;;;;;;;2.97;1.00;;;30.60;57.20;;;;;;4909772;29;20051;-80
2022/08/03 11:33:00;;;;;;;2.22;1.10;;;30.60;57.10;;;;;;4940986;29;20043;-78
2022/08/03 11:35:34;;;;;;;1.70;0.88;;;30.60;57.40;;;;;;4941439;29;20035;-82
2022/08/03 11:38:00;;;;;;;;;;;30.70;57.60;;;;;;4959102;29;20039;-83
2022/08/03 11:40:48;;;;;;;2.38;1.00;;;30.70;57.60;;;;;;4941214;29;19915;-79
2022/08/03 11:43:29;;;;;;;1.75;0.90;;;30.70;57.80;;;;;;4958108;28;20086;-79
2022/08/03 11:46:20;;;;;;;2.45;1.10;;;30.70;58.00;;;;;;4958280;29;20023;-80
2022/08/03 11:48:49;;;;;;;2.03;1.08;;;30.80;58.30;;;;;;4925576;29;20031;-81
2022/08/03 11:51:18;;;;;;;2.20;1.00;;;30.80;58.30;;;;;;4958115;29;20024;-80
2022/08/03 11:53:46;;;;;;;2.22;0.95;;;30.90;58.60;;;;;;4941185;29;20428;-79
2022/08/03 11:56:12;;;;;;;1.42;1.10;;;30.90;58.60;;;;;;4940604;29;20023;-79
2022/08/03 11:58:52;;;;;;;2.75;0.93;;;30.90;58.80;;;;;;4940466;29;20039;-79
2022/08/03 12:01:19;;;;;;;3.13;1.30;;;30.90;59.00;;;;;;4958483;29;20028;-79
2022/08/03 12:03:45;;;;;;;2.42;1.10;;;31.00;59.10;;;;;;4957660;29;20039;-80
2022/08/03 12:06:13;;;;;;;2.10;1.10;;;31.00;59.20;;;;;;4940779;29;20035;-80
2022/08/03 12:08:40;;;;;;;2.88;1.27;;;31.00;59.20;;;;;;4940478;29;20455;-78
2022/08/03 12:11:08;;;;;;;2.47;1.02;;;31.10;59.20;;;;;;4957343;29;20042;-81
2022/08/03 12:13:46;;;;;;;1.40;0.77;;;31.10;59.30;;;;;;4957967;28;20063;-81
2022/08/03 12:16:23;;;;;;;1.70;0.90;;;31.10;59.30;;;;;;4940611;29;20027;-80
2022/08/03 12:19:00;;;;;;;1.35;0.88;;;31.10;59.20;;;;;;4940280;29;20110;-79
2022/08/03 12:21:26;;;;;;;5.32;1.10;;;31.10;59.20;;;;;;4940184;29;20075;-79
2022/08/03 12:23:58;;;;;;;2.65;1.17;;;31.10;59.10;;;;;;4958294;29;20035;-81
2022/08/03 12:26:25;;;;;;;2.47;1.10;;;31.20;59.20;;;;;;4940413;29;20086;-81
2022/08/03 12:28:51;;;;;;;2.70;0.93;;;31.20;59.00;;;;;;4939903;29;20035;-81
2022/08/03 12:31:17;;;;;;;2.00;0.95;;;31.20;58.90;;;;;;4908663;29;20031;-80
2022/08/03 12:34:05;;;;;;;4.35;1.20;;;31.20;58.70;;;;;;4940526;29;20043;-82
2022/08/03 12:36:33;;;;;;;1.08;0.75;;;31.20;58.60;;;;;;4925027;29;20042;-82
2022/08/03 12:39:04;;;;;;;3.95;1.17;;;31.20;58.40;;;;;;4939654;29;20035;-80
2022/08/03 12:41:33;;;;;;;3.40;1.27;;;31.20;58.30;;;;;;4940173;29;20077;-80
2022/08/03 12:44:01;;;;;;;2.17;0.93;;;31.20;58.20;;;;;;4956909;29;20431;-79
2022/08/03 12:46:38;;;;;;;2.08;0.90;;;31.30;58.20;;;;;;4957395;29;20477;-79
2022/08/03 12:49:14;;;;;;;1.85;0.90;;;31.20;58.10;;;;;;4956860;29;20110;-79
2022/08/03 12:51:42;;;;;;;1.70;1.00;;;31.30;58.00;;;;;;4957247;29;20046;-79
2022/08/03 12:54:14;;;;;;;4.13;1.42;;;31.30;57.90;;;;;;4938678;29;20031;-85
2022/08/03 12:57:15;;;;;;;3.10;0.93;;;31.30;57.80;;;;;;4940009;29;20121;-82
2022/08/03 12:59:45;;;;;;;3.05;1.10;;;31.30;57.80;;;;;;4878965;29;20037;-82
2022/08/03 13:06:11;;;;;;;2.47;0.80;;;31.40;57.50;;;;;;4957101;29;20122;-79
2022/08/03 13:08:37;;;;;;;2.80;1.10;;;31.30;57.20;;;;;;4939390;29;20047;-80
2022/08/03 13:11:26;;;;;;;2.30;0.90;;;31.40;57.20;;;;;;4939134;29;20035;-80
2022/08/03 13:13:53;;;;;;;1.50;0.93;;;31.30;57.20;;;;;;4957298;28;20083;-80